< < Back
Terminal Aerodrome Forecast


Current Version              Previous Versions:   1  2  3  4  5  6  7  8  9  

Terminal Aerodrome Forecast

515
FTUS44 KMRX 271735
TAFCHA
TAF
KCHA 271735Z 2718/2818 34012G18KT P6SM SCT040 SCT120
     FM272100 33012G16KT P6SM BKN045
     FM280100 34010KT P6SM OVC035
     FM280900 35008KT P6SM SCT025 SCT150=



Latest METAR

731
SAUS80 KWBC 281200 RRB
MTRCHA
METAR KCHA 281153Z 36008KT 10SM SCT050 00/M08 A3017 RMK AO2 SLP219
T00001078 10039 20000 53024


USA.gov is the U.S. government's official web portal to all federal, state and local government web resources and services.